KIAG Airport Information

Runway Information
Runway 06 Length 5189 ft width 150 ft
Elevation 583 ft Threshold 0 ft Heading 50
Runway 24 Length 5189 ft Width 150 ft
Elevation 589 ft Threshold 0 ft Heading 230
Runway 10L Length 9829 ft width 150 ft
Elevation 585 ft Threshold 700 ft Heading 90
Runway 28R Length 9829 ft Width 150 ft
Elevation 588 ft Threshold 0 ft Heading 270
Runway 10R Length 3973 ft width 75 ft
Elevation 583 ft Threshold 0 ft Heading 89
Runway 28L Length 3973 ft Width 75 ft
Elevation 584 ft Threshold 0 ft Heading 269
Airport Frequencies
Type A/D Name BUFFALO AP Frequency 126.5 MHZ
Type ATIS Name ATIS Frequency 120.8 MHZ
Type CLD Name CLNC DEL Frequency 119.25 MHZ
Type CTAF Name CTAF Frequency 118.5 MHZ
Type GND Name GND Frequency 121.7 MHZ
Type OPS Name ANG OPS Frequency 26.19 MHZ
Type POST Name 914 AW COM Frequency 34.002 MHZ
Type PTD Name PTD Frequency 37.22 MHZ
Type TWR Name TWR Frequency 118.5 MHZ
Type UNIC Name UNICOM Frequency 122.95 MHZ
Airport Navaids
Type NDB Name Kathi Frequency 329 KHZ
Type TACAN Name Niagara Falls Frequency 111000 KHZ
Airport Weather Information & NOTAM
ADDS - METARS form results

(1249 UTC 19 June 2021)
Data provider http://aviationweather.gov/metar/data/
 
METAR text: KIAG 191246Z 22009KT 4SM BR BKN005 21/19 A2977 RMK AO2 T02110189
Conditions at: KIAG (NIAGARA FALLS , NY, US) observed 1246 UTC 19 June 2021
Temperature: 21.1°C (70°F)
Dewpoint: 18.9°C (66°F) [RH = 87%]
Pressure (altimeter): 29.77 inches Hg (1008.2 mb)
Winds: from the SW (220 degrees) at 10 MPH (9 knots; 4.6 m/s)
Visibility: 4 miles ( 6 km)
Ceiling: 500 feet AGL
Clouds: broken clouds at 500 feet AGL
Weather: BR  (mist)

METAR text: KIAG 191226Z 22008KT 3SM BR OVC004 21/19 A2977 RMK AO2 T02060189
Conditions at: KIAG (NIAGARA FALLS , NY, US) observed 1226 UTC 19 June 2021
Temperature: 20.6°C (69°F)
Dewpoint: 18.9°C (66°F) [RH = 90%]
Pressure (altimeter): 29.77 inches Hg (1008.2 mb)
Winds: from the SW (220 degrees) at 9 MPH (8 knots; 4.1 m/s)
Visibility: 3 miles ( 5 km)
Ceiling: 400 feet AGL
Clouds: overcast cloud deck at 400 feet AGL
Weather: BR  (mist)

METAR text: KIAG 191214Z 22008KT 2SM BR OVC003 19/18 A2978 RMK AO2 T01940183
Conditions at: KIAG (NIAGARA FALLS , NY, US) observed 1214 UTC 19 June 2021
Temperature: 19.4°C (67°F)
Dewpoint: 18.3°C (65°F) [RH = 93%]
Pressure (altimeter): 29.78 inches Hg (1008.5 mb)
Winds: from the SW (220 degrees) at 9 MPH (8 knots; 4.1 m/s)
Visibility: 2.00 miles (3.22 km)
Ceiling: 300 feet AGL
Clouds: overcast cloud deck at 300 feet AGL
Weather: BR  (mist)

METAR text: KIAG 191153Z 24007KT 1 1/2SM BR OVC003 19/18 A2977 RMK AO2 SLP079 60000 T01940183 10217 20172 53013
Conditions at: KIAG (NIAGARA FALLS , NY, US) observed 1153 UTC 19 June 2021
Temperature: 19.4°C (67°F)
Dewpoint: 18.3°C (65°F) [RH = 93%]
Pressure (altimeter): 29.77 inches Hg (1008.2 mb)
[Sea-level pressure: 1007.9 mb]
Winds: from the WSW (240 degrees) at 8 MPH (7 knots; 3.6 m/s)
Visibility: 1.50 miles (2.41 km)
Ceiling: 300 feet AGL
Clouds: overcast cloud deck at 300 feet AGL
Weather: BR  (mist)

Forecast for: KIAG (NIAGARA FALLS , NY, US)
Text: KIAG 191120Z 1912/2012 21006KT 2SM BR BKN004
Forecast period: 1200 to 1300 UTC 19 June 2021
Forecast type: FROM: standard forecast or significant change
Winds: from the SSW (210 degrees) at 7 MPH (6 knots; 3.1 m/s)
Visibility: 2.00 miles (3.22 km)
Ceiling: 400 feet AGL
Clouds: broken clouds at 400 feet AGL
Weather: BR  (mist)
Text: FM191300 22008KT P6SM SCT004 BKN250
Forecast period: 1300 to 1600 UTC 19 June 2021
Forecast type: FROM: standard forecast or significant change
Winds: from the SW (220 degrees) at 9 MPH (8 knots; 4.1 m/s)
Visibility: 6 or more miles (10+ km)
Ceiling: 25000 feet AGL
Clouds: scattered clouds at 400 feet AGL
broken clouds at 25000 feet AGL
Weather: no significant weather forecast for this period
Text: FM191600 24015G25KT P6SM SCT050 SCT250
Forecast period: 1600 to 2100 UTC 19 June 2021
Forecast type: FROM: standard forecast or significant change
Winds: from the WSW (240 degrees) at 17 MPH (15 knots; 7.7 m/s)
gusting to 29 MPH (25 knots; 12.9 m/s)
Visibility: 6 or more miles (10+ km)
Ceiling: at least 12,000 feet AGL
Clouds: scattered clouds at 5000 feet AGL
scattered clouds at 25000 feet AGL
Weather: no significant weather forecast for this period
Text: FM192100 25013G21KT P6SM VCTS BKN050CB
Forecast period: 2100 UTC 19 June 2021 to 0000 UTC 20 June 2021
Forecast type: FROM: standard forecast or significant change
Winds: from the WSW (250 degrees) at 15 MPH (13 knots; 6.7 m/s)
gusting to 24 MPH (21 knots; 10.8 m/s)
Visibility: 6 or more miles (10+ km)
Ceiling: 5000 feet AGL
Clouds: broken clouds at 5000 feet AGL
Weather: VCTS  (thunderstorm in vicinity)
Text: FM200000 23010KT P6SM BKN060
Forecast period: 0000 to 1200 UTC 20 June 2021
Forecast type: FROM: standard forecast or significant change
Winds: from the SW (230 degrees) at 12 MPH (10 knots; 5.1 m/s)
Visibility: 6 or more miles (10+ km)
Ceiling: 6000 feet AGL
Clouds: broken clouds at 6000 feet AGL
Weather: no significant weather forecast for this period